Home > Products > Valid Products > MTR

000
SAUS44 KMEG 280754
MTRTUP
METAR KTUP 280753Z AUTO 28004KT 10SM SCT046 27/24 A2994 RMK AO2
SLP132 T02670244





000
SAUS44 KMEG 280654
MTRTUP
METAR KTUP 280653Z AUTO 27004KT 10SM CLR 27/24 A2994 RMK AO2 SLP133
T02720244





000
SAUS44 KMEG 280554
MTRTUP
METAR KTUP 280553Z AUTO 27004KT 10SM BKN042 BKN070 28/24 A2995 RMK
AO2 SLP136 T02780244 10311 20278 403330233 58003





000
SAUS44 KMEG 280454
MTRTUP
METAR KTUP 280453Z AUTO 28005KT 10SM SCT047 BKN060 28/24 A2996 RMK
AO2 SLP139 T02780244





000
SAUS44 KMEG 280354
MTRTUP
METAR KTUP 280353Z AUTO 25004KT 10SM FEW050 28/24 A2996 RMK AO2
SLP139 T02780244





000
SAUS44 KMEG 280254
MTRTUP
METAR KTUP 280253Z 24004KT 10SM CLR 28/24 A2996 RMK AO2 SLP139
T02830244 53005





000
SAUS44 KMEG 280154
MTRTUP
METAR KTUP 280153Z 24004KT 10SM CLR 29/24 A2995 RMK AO2 SLP136
T02890244





000
SAUS44 KMEG 280054
MTRTUP
METAR KTUP 280053Z 25005KT 10SM CLR 30/24 A2994 RMK AO2 SLP135
T03000244





000
SAUS44 KMEG 272354
MTRTUP
METAR KTUP 272353Z 27007KT 10SM CLR 31/24 A2994 RMK AO2 SLP135
T03060244 10333 20306 56007





000
SAUS44 KMEG 272254
MTRTUP
METAR KTUP 272253Z 26006KT 10SM CLR 32/24 A2995 RMK AO2 SLP136
T03170244





000
SAUS44 KMEG 272154
MTRTUP
METAR KTUP 272153Z AUTO 25008G17KT 10SM CLR 33/24 A2994 RMK AO2
SLP135 T03280244





000
SAUS44 KMEG 272054
MTRTUP
METAR KTUP 272053Z AUTO 26007KT 10SM CLR 33/24 A2996 RMK AO2 SLP141
T03280239 58012





000
SAUS44 KMEG 271954
MTRTUP
METAR KTUP 271953Z AUTO 24006KT 10SM CLR 33/23 A2998 RMK AO2 SLP146
T03280233





000
SAUS44 KMEG 271854
MTRTUP
METAR KTUP 271853Z 27007KT 10SM SCT046 33/23 A2999 RMK AO2 SLP151
T03280233





000
SAUS44 KMEG 271754
MTRTUP
METAR KTUP 271753Z 26011KT 10SM SCT036 33/23 A3000 RMK AO2 SLP153
T03280233 10333 20244 58010





000
SAUS44 KMEG 271654
MTRTUP
METAR KTUP 271653Z 27009KT 240V310 10SM FEW035 32/23 A3002 RMK AO2
SLP160 T03220233





000
SAUS44 KMEG 271554
MTRTUP
METAR KTUP 271553Z 27009KT 10SM FEW028 32/23 A3003 RMK AO2 SLP164
T03170233





000
SAUS44 KMEG 271454
MTRTUP
METAR KTUP 271453Z 26008KT 10SM CLR 31/24 A3003 RMK AO2 SLP164
T03060239 51009





000
SAUS44 KMEG 271354
MTRTUP
METAR KTUP 271353Z 27005KT 10SM CLR 29/23 A3003 RMK AO2 SLP164
T02890233





000
SAUS44 KMEG 271254
MTRTUP
METAR KTUP 271253Z 25005KT 7SM CLR 26/23 A3003 RMK AO2 SLP163
T02610233





000
SAUS44 KMEG 271154
MTRTUP
METAR KTUP 271153Z 26004KT 5SM BR CLR 24/23 A3000 RMK AO2 SLP156
T02440228 10250 20233 53006





000
SAUS44 KMEG 271054
MTRTUP
METAR KTUP 271053Z 24003KT 6SM BR CLR 24/23 A2998 RMK AO2 SLP148
T02390228





000
SAUS44 KMEG 270954
MTRTUP
METAR KTUP 270953Z AUTO 00000KT 6SM BR CLR 24/22 A2998 RMK AO2
SLP147 T02390222





000
SAUS44 KMEG 270854
MTRTUP
METAR KTUP 270853Z AUTO 00000KT 6SM BR CLR 24/23 A2999 RMK AO2
SLP148 T02440228 55003





000
SAUS44 KMEG 270754
MTRTUP
METAR KTUP 270753Z AUTO 00000KT 7SM CLR 24/23 A2998 RMK AO2 SLP148
T02440228





000
SAUS44 KMEG 270654
MTRTUP
METAR KTUP 270653Z AUTO 00000KT 7SM CLR 25/23 A2998 RMK AO2 SLP147
T02500233





000
SAUS44 KMEG 270554
MTRTUP
METAR KTUP 270553Z AUTO 00000KT 7SM CLR 25/23 A2999 RMK AO2 SLP152
T02500233 10311 20244 403330183 56006





000
SAUS44 KMEG 270454
MTRTUP
METAR KTUP 270453Z AUTO 22003KT 7SM CLR 25/23 A3000 RMK AO2 SLP154
T02500233





000
SAUS44 KMEG 270354
MTRTUP
METAR KTUP 270353Z AUTO 00000KT 8SM CLR 26/23 A3000 RMK AO2 SLP155
T02560233





000
SAUS44 KMEG 270254
MTRTUP
METAR KTUP 270253Z 00000KT 10SM CLR 27/24 A3001 RMK AO2 SLP158
T02670239 53012





000
SAUS44 KMEG 270154
MTRTUP
METAR KTUP 270153Z 00000KT 10SM CLR 28/24 A2999 RMK AO2 SLP151
T02780239





000
SAUS44 KMEG 270054
MTRTUP
METAR KTUP 270053Z 25003KT 10SM CLR 30/23 A2998 RMK AO2 SLP148
T03000233





000
SAUS44 KMEG 262354
MTRTUP
METAR KTUP 262353Z 26004KT 10SM CLR 31/23 A2998 RMK AO2 SLP146
T03110233 10333 20306 56002





000
SAUS44 KMEG 262254
MTRTUP
METAR KTUP 262253Z 26007KT 10SM CLR 32/23 A2998 RMK AO2 SLP146
T03220233





000
SAUS44 KMEG 262154
MTRTUP
METAR KTUP 262153Z AUTO 25005KT 10SM CLR 33/23 A2998 RMK AO2 SLP147
T03280228





000
SAUS44 KMEG 262054
MTRTUP
METAR KTUP 262053Z AUTO 26008KT 10SM CLR 33/23 A2998 RMK AO2 SLP148
T03330228 58016





000
SAUS44 KMEG 261954
MTRTUP
METAR KTUP 261953Z AUTO VRB05KT 10SM FEW036 33/23 A3000 RMK AO2
SLP154 T03280233





000
SAUS44 KMEG 261854
MTRTUP
METAR KTUP 261853Z AUTO 24007KT 10SM SCT033 BKN041 32/23 A3001 RMK
AO2 SLP158 T03220233





000
SAUS44 KMEG 261754
MTRTUP
METAR KTUP 261753Z AUTO VRB03KT 10SM BKN030 31/23 A3003 RMK AO2
SLP164 T03110228 10317 20200 58008





000
SAUS44 KMEG 261654
MTRTUP
METAR KTUP 261653Z AUTO VRB05KT 10SM BKN027 31/23 A3004 RMK AO2
SLP168 T03060228





000
SAUS44 KMEG 261640
MTRTUP
SPECI KTUP 261639Z AUTO 32005KT 10SM BKN026 31/23 A3004 RMK AO2
T03060233





000
SAUS44 KMEG 261554
MTRTUP
METAR KTUP 261553Z AUTO 27007KT 10SM FEW029 29/22 A3005 RMK AO2
SLP172 T02890217





000
SAUS44 KMEG 261506
MTRTUP
SPECI KTUP 261504Z AUTO 27005KT 10SM BKN030 27/21 A3005 RMK AO2
T02720211





000
SAUS44 KMEG 261454
MTRTUP
METAR KTUP 261453Z AUTO VRB05KT 10SM BKN029 28/21 A3005 RMK AO2
SLP173 T02780211 50005





000
SAUS44 KMEG 261432
MTRTUP
SPECI KTUP 261431Z AUTO 26005KT 10SM BKN028 27/21 A3006 RMK AO2
T02720206





000
SAUS44 KMEG 261354
MTRTUP
METAR KTUP 261353Z AUTO 24003KT 10SM BKN031 25/19 A3006 RMK AO2
SLP174 T02500194





000
SAUS44 KMEG 261254
MTRTUP
METAR KTUP 261253Z AUTO 21003KT 10SM CLR 22/19 A3006 RMK AO2 SLP173
T02220194





000
SAUS44 KMEG 261154
MTRTUP
METAR KTUP 261153Z AUTO 00000KT 9SM CLR 20/18 A3004 RMK AO2 SLP167
T02000183 10211 20183 53011





000
SAUS44 KMEG 261054
MTRTUP
METAR KTUP 261053Z AUTO 00000KT 8SM CLR 19/18 A3003 RMK AO2 SLP165
T01890178





000
SAUS44 KMEG 260954
MTRTUP
METAR KTUP 260953Z AUTO 00000KT 9SM CLR 19/18 A3002 RMK AO2 SLP159
T01940178





000
SAUS44 KMEG 260854
MTRTUP
METAR KTUP 260853Z AUTO 00000KT 7SM CLR 19/18 A3001 RMK AO2 SLP156
T01940183 56001





000
SAUS44 KMEG 260754
MTRTUP
METAR KTUP 260753Z AUTO 21004KT 8SM CLR 19/18 A3001 RMK AO2 SLP158
T01890178





000
SAUS44 KMEG 260654
MTRTUP
METAR KTUP 260653Z AUTO 00000KT 10SM CLR 21/18 A3000 RMK AO2 SLP155
T02060183





000
SAUS44 KMEG 260554
MTRTUP
METAR KTUP 260553Z AUTO 00000KT 10SM CLR 21/19 A3001 RMK AO2 SLP157
T02110189 10283 20211 403000167 50008





000
SAUS44 KMEG 260454
MTRTUP
METAR KTUP 260453Z AUTO 00000KT 10SM CLR 22/19 A3001 RMK AO2 SLP158
T02170189





000
SAUS44 KMEG 260354
MTRTUP
METAR KTUP 260353Z AUTO 00000KT 10SM CLR 22/19 A2999 RMK AO2 SLP152
T02220194





000
SAUS44 KMEG 260254
MTRTUP
METAR KTUP 260253Z AUTO 22004KT 10SM CLR 22/19 A2999 RMK AO2 SLP150
T02170194 55003





000
SAUS44 KMEG 260154
MTRTUP
METAR KTUP 260153Z AUTO 00000KT 10SM CLR 24/19 A2998 RMK AO2 SLP149
T02440189





000
SAUS44 KMEG 260054
MTRTUP
METAR KTUP 260053Z AUTO 00000KT 10SM CLR 26/19 A2998 RMK AO2 SLP149
T02610189





000
SAUS44 KMEG 252354
MTRTUP
METAR KTUP 252353Z AUTO 00000KT 10SM CLR 28/17 A3000 RMK AO2 SLP154
T02830167 10300 20278 58002





000
SAUS44 KMEG 252254
MTRTUP
METAR KTUP 252253Z AUTO 05007KT 10SM FEW047 28/17 A3002 RMK AO2
SLP161 T02830167





000
SAUS44 KMEG 252154
MTRTUP
METAR KTUP 252153Z AUTO 08005KT 10SM CLR 29/17 A3000 RMK AO2 SLP155
T02940167





000
SAUS44 KMEG 252054
MTRTUP
METAR KTUP 252053Z AUTO 03007KT 10SM FEW046 29/18 A3000 RMK AO2
SLP156 T02940178 58009





000
SAUS44 KMEG 251954
MTRTUP
METAR KTUP 251953Z AUTO 03005KT 10SM FEW044 29/17 A3001 RMK AO2
SLP160 T02890172





000
SAUS44 KMEG 251854
MTRTUP
METAR KTUP 251853Z 31006KT 10SM CLR 29/17 A3002 RMK AO2 SLP163
T02890167





000
SAUS44 KMEG 251754
MTRTUP
METAR KTUP 251753Z VRB03KT 10SM FEW036 28/18 A3003 RMK AO2 SLP166
T02830178 10283 20178 58008





000
SAUS44 KMEG 251654
MTRTUP
METAR KTUP 251653Z 35004KT 10SM CLR 27/17 A3004 RMK AO2 SLP168
T02720167





000
SAUS44 KMEG 251554
MTRTUP
METAR KTUP 251553Z VRB06KT 10SM FEW027 27/18 A3006 RMK AO2 SLP174
T02720178





000
SAUS44 KMEG 251454
MTRTUP
METAR KTUP 251453Z 00000KT 10SM CLR 25/18 A3005 RMK AO2 SLP174
T02500183 50002





000
SAUS44 KMEG 251354
MTRTUP
METAR KTUP 251353Z 00000KT 10SM CLR 23/18 A3006 RMK AO2 SLP175
T02330183





000
SAUS44 KMEG 251254
MTRTUP
METAR KTUP 251253Z 05005KT 10SM CLR 20/17 A3005 RMK AO2 SLP171
T02000172





000
SAUS44 KMEG 251154
MTRTUP
METAR KTUP 251153Z 04004KT 10SM CLR 18/16 A3005 RMK AO2 SLP172
T01780161 10189 20167 53018





000
SAUS44 KMEG 251054
MTRTUP
METAR KTUP 251053Z 00000KT 10SM CLR 17/16 A3003 RMK AO2 SLP164
T01670156





000
SAUS44 KMEG 250954
MTRTUP
METAR KTUP 250953Z 01003KT 10SM CLR 17/16 A3002 RMK AO2 SLP161
T01720156





000
SAUS44 KMEG 250854
MTRTUP
METAR KTUP 250853Z 00000KT 10SM CLR 17/16 A3000 RMK AO2 SLP154
T01720161 55008





    US Dept of Commerce
    National Oceanic and Atmospheric Administration
    National Weather Service
    1325 East West Highway
    Silver Spring, MD 20910
    Page Author: NWS Internet Services Team
Disclaimer
Information Quality
Credits
Glossary
Privacy Policy
Freedom of Information Act (FOIA)
About Us
Career Opportunities